sensor_id;sensor_type;location;lat;lon;timestamp;pressure;altitude;pressure_sealevel;temperature
72236;BMP280;60146;52.498;13.462;2023-06-22T00:00:58;101614.22;;;23.26
72236;BMP280;60146;52.498;13.462;2023-06-22T00:03:26;101621.13;;;23.27
72236;BMP280;60146;52.498;13.462;2023-06-22T00:05:51;101621.81;;;23.24
72236;BMP280;60146;52.498;13.462;2023-06-22T00:08:18;101622.09;;;23.20
72236;BMP280;60146;52.498;13.462;2023-06-22T00:10:44;101628.63;;;23.22
72236;BMP280;60146;52.498;13.462;2023-06-22T00:13:10;101632.44;;;23.21
72236;BMP280;60146;52.498;13.462;2023-06-22T00:15:37;101627.09;;;23.21
72236;BMP280;60146;52.498;13.462;2023-06-22T00:18:03;101626.91;;;23.14
72236;BMP280;60146;52.498;13.462;2023-06-22T00:20:28;101626.81;;;23.11
72236;BMP280;60146;52.498;13.462;2023-06-22T00:22:55;101637.06;;;23.09
72236;BMP280;60146;52.498;13.462;2023-06-22T00:25:21;101634.41;;;23.09
72236;BMP280;60146;52.498;13.462;2023-06-22T00:27:47;101641.22;;;23.06
72236;BMP280;60146;52.498;13.462;2023-06-22T00:30:12;101650.72;;;23.04
72236;BMP280;60146;52.498;13.462;2023-06-22T00:32:38;101655.66;;;23.02
72236;BMP280;60146;52.498;13.462;2023-06-22T00:35:03;101643.84;;;23.03
72236;BMP280;60146;52.498;13.462;2023-06-22T00:37:29;101641.03;;;23.00
72236;BMP280;60146;52.498;13.462;2023-06-22T00:39:55;101637.16;;;22.97
72236;BMP280;60146;52.498;13.462;2023-06-22T00:42:20;101656.16;;;22.92
72236;BMP280;60146;52.498;13.462;2023-06-22T00:44:46;101655.00;;;22.93
72236;BMP280;60146;52.498;13.462;2023-06-22T00:47:13;101654.91;;;22.90
72236;BMP280;60146;52.498;13.462;2023-06-22T00:49:39;101657.06;;;22.84
72236;BMP280;60146;52.498;13.462;2023-06-22T00:52:06;101647.50;;;22.83
72236;BMP280;60146;52.498;13.462;2023-06-22T00:54:35;101654.28;;;22.81
72236;BMP280;60146;52.498;13.462;2023-06-22T00:57:01;101651.53;;;22.78
72236;BMP280;60146;52.498;13.462;2023-06-22T00:59:27;101647.28;;;22.77
72236;BMP280;60146;52.498;13.462;2023-06-22T01:02:03;101658.69;;;22.74
72236;BMP280;60146;52.498;13.462;2023-06-22T01:04:38;101662.13;;;22.74
72236;BMP280;60146;52.498;13.462;2023-06-22T01:07:28;101661.16;;;22.67
72236;BMP280;60146;52.498;13.462;2023-06-22T01:10:03;101658.41;;;22.64
72236;BMP280;60146;52.498;13.462;2023-06-22T01:12:34;101665.94;;;22.62
72236;BMP280;60146;52.498;13.462;2023-06-22T01:15:27;101665.81;;;22.70
72236;BMP280;60146;52.498;13.462;2023-06-22T01:17:53;101661.50;;;22.65
72236;BMP280;60146;52.498;13.462;2023-06-22T01:20:21;101667.19;;;22.64
72236;BMP280;60146;52.498;13.462;2023-06-22T01:25:39;101671.97;;;22.59
72236;BMP280;60146;52.498;13.462;2023-06-22T01:28:23;101664.97;;;22.54
72236;BMP280;60146;52.498;13.462;2023-06-22T01:30:50;101664.53;;;22.52
72236;BMP280;60146;52.498;13.462;2023-06-22T01:33:28;101665.44;;;22.56
72236;BMP280;60146;52.498;13.462;2023-06-22T01:35:54;101673.34;;;22.53
72236;BMP280;60146;52.498;13.462;2023-06-22T01:38:19;101669.09;;;22.52
72236;BMP280;60146;52.498;13.462;2023-06-22T01:40:45;101669.78;;;22.49
72236;BMP280;60146;52.498;13.462;2023-06-22T01:43:11;101678.50;;;22.46
72236;BMP280;60146;52.498;13.462;2023-06-22T01:45:36;101689.53;;;22.45
72236;BMP280;60146;52.498;13.462;2023-06-22T01:48:02;101679.72;;;22.37
72236;BMP280;60146;52.498;13.462;2023-06-22T01:50:28;101692.34;;;22.36
72236;BMP280;60146;52.498;13.462;2023-06-22T01:52:53;101685.72;;;22.34
72236;BMP280;60146;52.498;13.462;2023-06-22T01:55:19;101688.09;;;22.35
72236;BMP280;60146;52.498;13.462;2023-06-22T01:57:44;101686.22;;;22.36
72236;BMP280;60146;52.498;13.462;2023-06-22T02:00:12;101688.88;;;22.36
72236;BMP280;60146;52.498;13.462;2023-06-22T02:02:51;101691.75;;;22.43
72236;BMP280;60146;52.498;13.462;2023-06-22T02:05:18;101692.19;;;22.45
72236;BMP280;60146;52.498;13.462;2023-06-22T02:07:49;101689.53;;;22.45
72236;BMP280;60146;52.498;13.462;2023-06-22T02:10:20;101697.53;;;22.45
72236;BMP280;60146;52.498;13.462;2023-06-22T02:12:47;101682.59;;;22.44
72236;BMP280;60146;52.498;13.462;2023-06-22T02:15:13;101680.59;;;22.41
72236;BMP280;60146;52.498;13.462;2023-06-22T02:17:39;101687.50;;;22.42
72236;BMP280;60146;52.498;13.462;2023-06-22T02:20:13;101698.88;;;22.39
72236;BMP280;60146;52.498;13.462;2023-06-22T02:22:39;101695.44;;;22.38
72236;BMP280;60146;52.498;13.462;2023-06-22T02:25:05;101702.25;;;22.36
72236;BMP280;60146;52.498;13.462;2023-06-22T02:27:30;101705.91;;;22.31
72236;BMP280;60146;52.498;13.462;2023-06-22T02:29:56;101706.16;;;22.27
72236;BMP280;60146;52.498;13.462;2023-06-22T02:32:22;101713.84;;;22.28
72236;BMP280;60146;52.498;13.462;2023-06-22T02:34:47;101706.94;;;22.27
72236;BMP280;60146;52.498;13.462;2023-06-22T02:37:13;101705.69;;;22.25
72236;BMP280;60146;52.498;13.462;2023-06-22T02:39:40;101713.38;;;22.26
72236;BMP280;60146;52.498;13.462;2023-06-22T02:42:05;101715.50;;;22.32
72236;BMP280;60146;52.498;13.462;2023-06-22T02:44:31;101705.47;;;22.29
72236;BMP280;60146;52.498;13.462;2023-06-22T02:46:56;101700.13;;;22.29
72236;BMP280;60146;52.498;13.462;2023-06-22T02:49:22;101704.22;;;22.39
72236;BMP280;60146;52.498;13.462;2023-06-22T02:51:48;101706.22;;;22.42
72236;BMP280;60146;52.498;13.462;2023-06-22T02:54:13;101702.34;;;22.39
72236;BMP280;60146;52.498;13.462;2023-06-22T02:56:39;101703.97;;;22.44
72236;BMP280;60146;52.498;13.462;2023-06-22T02:59:06;101707.22;;;22.49
72236;BMP280;60146;52.498;13.462;2023-06-22T03:01:32;101703.22;;;22.43
72236;BMP280;60146;52.498;13.462;2023-06-22T03:04:03;101702.75;;;22.41
72236;BMP280;60146;52.498;13.462;2023-06-22T03:06:29;101701.00;;;22.45
72236;BMP280;60146;52.498;13.462;2023-06-22T03:08:59;101705.22;;;22.46
72236;BMP280;60146;52.498;13.462;2023-06-22T03:11:24;101699.09;;;22.46
72236;BMP280;60146;52.498;13.462;2023-06-22T03:13:50;101705.41;;;22.53
72236;BMP280;60146;52.498;13.462;2023-06-22T03:16:17;101707.53;;;22.47
72236;BMP280;60146;52.498;13.462;2023-06-22T03:18:43;101702.19;;;22.47
72236;BMP280;60146;52.498;13.462;2023-06-22T03:21:08;101704.88;;;22.47
72236;BMP280;60146;52.498;13.462;2023-06-22T03:23:34;101704.66;;;22.41
72236;BMP280;60146;52.498;13.462;2023-06-22T03:25:59;101699.59;;;22.36
72236;BMP280;60146;52.498;13.462;2023-06-22T03:28:24;101706.81;;;22.35
72236;BMP280;60146;52.498;13.462;2023-06-22T03:30:50;101701.56;;;22.39
72236;BMP280;60146;52.498;13.462;2023-06-22T03:33:15;101702.88;;;22.33
72236;BMP280;60146;52.498;13.462;2023-06-22T03:35:40;101699.09;;;22.34
72236;BMP280;60146;52.498;13.462;2023-06-22T03:38:06;101701.78;;;22.34
72236;BMP280;60146;52.498;13.462;2023-06-22T03:40:31;101699.59;;;22.36
72236;BMP280;60146;52.498;13.462;2023-06-22T03:42:56;101702.25;;;22.36
72236;BMP280;60146;52.498;13.462;2023-06-22T03:45:22;101703.38;;;22.35
72236;BMP280;60146;52.498;13.462;2023-06-22T03:47:47;101704.94;;;22.36
72236;BMP280;60146;52.498;13.462;2023-06-22T03:50:12;101706.03;;;22.35
72236;BMP280;60146;52.498;13.462;2023-06-22T03:52:39;101703.38;;;22.35
72236;BMP280;60146;52.498;13.462;2023-06-22T03:55:05;101701.56;;;22.39
72236;BMP280;60146;52.498;13.462;2023-06-22T03:57:31;101700.22;;;22.45
72236;BMP280;60146;52.498;13.462;2023-06-22T03:59:57;101705.56;;;22.45
72236;BMP280;60146;52.498;13.462;2023-06-22T04:02:23;101702.66;;;22.49
72236;BMP280;60146;52.498;13.462;2023-06-22T04:04:48;101706.41;;;22.60
72236;BMP280;60146;52.498;13.462;2023-06-22T04:07:14;101702.75;;;22.65
72236;BMP280;60146;52.498;13.462;2023-06-22T04:09:39;101708.50;;;22.66
72236;BMP280;60146;52.498;13.462;2023-06-22T04:12:05;101705.34;;;22.76
72236;BMP280;60146;52.498;13.462;2023-06-22T04:14:30;101711.06;;;22.90
72236;BMP280;60146;52.498;13.462;2023-06-22T04:16:56;101706.81;;;23.01
72236;BMP280;60146;52.498;13.462;2023-06-22T04:19:21;101718.81;;;23.06
72236;BMP280;60146;52.498;13.462;2023-06-22T04:21:47;101710.03;;;23.06
72236;BMP280;60146;52.498;13.462;2023-06-22T04:24:14;101711.19;;;22.93
72236;BMP280;60146;52.498;13.462;2023-06-22T04:26:39;101724.31;;;22.98
72236;BMP280;60146;52.498;13.462;2023-06-22T04:29:06;101727.41;;;23.00
72236;BMP280;60146;52.498;13.462;2023-06-22T04:31:34;101722.53;;;23.02
72236;BMP280;60146;52.498;13.462;2023-06-22T04:34:01;101732.50;;;23.17
72236;BMP280;60146;52.498;13.462;2023-06-22T04:36:35;101731.97;;;23.26
72236;BMP280;60146;52.498;13.462;2023-06-22T04:39:08;101728.28;;;23.31
72236;BMP280;60146;52.498;13.462;2023-06-22T04:41:38;101726.91;;;23.37
72236;BMP280;60146;52.498;13.462;2023-06-22T04:44:13;101728.91;;;23.39
72236;BMP280;60146;52.498;13.462;2023-06-22T04:46:40;101729.91;;;23.35
72236;BMP280;60146;52.498;13.462;2023-06-22T04:49:06;101733.91;;;23.41
72236;BMP280;60146;52.498;13.462;2023-06-22T04:51:36;101739.88;;;23.50
72236;BMP280;60146;52.498;13.462;2023-06-22T04:54:03;101735.66;;;23.64
72236;BMP280;60146;52.498;13.462;2023-06-22T04:56:31;101734.13;;;23.78
72236;BMP280;60146;52.498;13.462;2023-06-22T04:58:56;101729.03;;;23.91
72236;BMP280;60146;52.498;13.462;2023-06-22T05:01:23;101732.50;;;24.07
72236;BMP280;60146;52.498;13.462;2023-06-22T05:03:48;101729.78;;;24.22
72236;BMP280;60146;52.498;13.462;2023-06-22T05:06:14;101734.50;;;24.28
72236;BMP280;60146;52.498;13.462;2023-06-22T05:08:40;101729.88;;;24.26
72236;BMP280;60146;52.498;13.462;2023-06-22T05:11:05;101734.88;;;24.27
72236;BMP280;60146;52.498;13.462;2023-06-22T05:13:31;101726.22;;;24.33
72236;BMP280;60146;52.498;13.462;2023-06-22T05:15:56;101725.50;;;24.36
72236;BMP280;60146;52.498;13.462;2023-06-22T05:18:29;101718.97;;;24.34
72236;BMP280;60146;52.498;13.462;2023-06-22T05:20:55;101727.06;;;24.37
72236;BMP280;60146;52.498;13.462;2023-06-22T05:23:20;101727.88;;;24.56
72236;BMP280;60146;52.498;13.462;2023-06-22T05:25:46;101729.75;;;24.56
72236;BMP280;60146;52.498;13.462;2023-06-22T05:28:11;101737.41;;;24.54
72236;BMP280;60146;52.498;13.462;2023-06-22T05:30:37;101732.16;;;24.61
72236;BMP280;60146;52.498;13.462;2023-06-22T05:33:03;101741.09;;;24.31
72236;BMP280;60146;52.498;13.462;2023-06-22T05:35:28;101745.44;;;24.20
72236;BMP280;60146;52.498;13.462;2023-06-22T05:37:54;101741.72;;;24.25
72236;BMP280;60146;52.498;13.462;2023-06-22T05:40:20;101724.03;;;24.39
72236;BMP280;60146;52.498;13.462;2023-06-22T05:42:45;101732.38;;;24.52
72236;BMP280;60146;52.498;13.462;2023-06-22T05:45:11;101742.34;;;24.70
72236;BMP280;60146;52.498;13.462;2023-06-22T05:47:36;101747.00;;;24.92
72236;BMP280;60146;52.498;13.462;2023-06-22T05:50:02;101753.31;;;25.02
72236;BMP280;60146;52.498;13.462;2023-06-22T05:52:31;101762.22;;;25.06
72236;BMP280;60146;52.498;13.462;2023-06-22T05:54:56;101757.84;;;25.17
72236;BMP280;60146;52.498;13.462;2023-06-22T05:57:22;101774.22;;;25.12
72236;BMP280;60146;52.498;13.462;2023-06-22T05:59:47;101759.31;;;25.15
72236;BMP280;60146;52.498;13.462;2023-06-22T06:02:12;101761.94;;;25.11
72236;BMP280;60146;52.498;13.462;2023-06-22T06:04:38;101767.56;;;25.06
72236;BMP280;60146;52.498;13.462;2023-06-22T06:07:03;101768.50;;;25.14
72236;BMP280;60146;52.498;13.462;2023-06-22T06:09:29;101754.78;;;25.18
72236;BMP280;60146;52.498;13.462;2023-06-22T06:11:54;101763.34;;;25.24
72236;BMP280;60146;52.498;13.462;2023-06-22T06:14:19;101757.91;;;25.42
72236;BMP280;60146;52.498;13.462;2023-06-22T06:16:45;101763.03;;;25.51
72236;BMP280;60146;52.498;13.462;2023-06-22T06:19:10;101756.06;;;25.46
72236;BMP280;60146;52.498;13.462;2023-06-22T06:21:36;101749.25;;;25.52
72236;BMP280;60146;52.498;13.462;2023-06-22T06:24:01;101747.84;;;25.58
72236;BMP280;60146;52.498;13.462;2023-06-22T06:26:27;101740.94;;;25.60
72236;BMP280;60146;52.498;13.462;2023-06-22T06:28:59;101743.25;;;25.62
72236;BMP280;60146;52.498;13.462;2023-06-22T06:31:25;101742.00;;;25.78
72236;BMP280;60146;52.498;13.462;2023-06-22T06:33:56;101745.06;;;25.76
72236;BMP280;60146;52.498;13.462;2023-06-22T06:36:21;101739.50;;;25.91
72236;BMP280;60146;52.498;13.462;2023-06-22T06:38:47;101755.75;;;25.98
72236;BMP280;60146;52.498;13.462;2023-06-22T06:41:16;101760.34;;;25.98
72236;BMP280;60146;52.498;13.462;2023-06-22T06:43:41;101757.44;;;26.09
72236;BMP280;60146;52.498;13.462;2023-06-22T06:46:10;101760.88;;;26.32
72236;BMP280;60146;52.498;13.462;2023-06-22T06:48:35;101756.47;;;26.21
72236;BMP280;60146;52.498;13.462;2023-06-22T06:51:03;101753.19;;;26.08
72236;BMP280;60146;52.498;13.462;2023-06-22T06:53:29;101745.59;;;26.10
72236;BMP280;60146;52.498;13.462;2023-06-22T06:55:54;101741.94;;;26.00
72236;BMP280;60146;52.498;13.462;2023-06-22T06:58:20;101743.03;;;26.21
72236;BMP280;60146;52.498;13.462;2023-06-22T07:00:45;101736.66;;;26.32
72236;BMP280;60146;52.498;13.462;2023-06-22T07:03:11;101736.03;;;26.45
72236;BMP280;60146;52.498;13.462;2023-06-22T07:05:36;101739.50;;;26.45
72236;BMP280;60146;52.498;13.462;2023-06-22T07:08:01;101735.47;;;26.29
72236;BMP280;60146;52.498;13.462;2023-06-22T07:10:27;101733.72;;;26.43
72236;BMP280;60146;52.498;13.462;2023-06-22T07:12:53;101728.03;;;26.20
72236;BMP280;60146;52.498;13.462;2023-06-22T07:15:18;101730.78;;;26.23
72236;BMP280;60146;52.498;13.462;2023-06-22T07:17:43;101719.53;;;26.18
72236;BMP280;60146;52.498;13.462;2023-06-22T07:20:09;101715.03;;;26.25
72236;BMP280;60146;52.498;13.462;2023-06-22T07:22:41;101710.97;;;26.70
72236;BMP280;60146;52.498;13.462;2023-06-22T07:25:07;101714.81;;;27.08
72236;BMP280;60146;52.498;13.462;2023-06-22T07:27:43;101713.91;;;27.39
72236;BMP280;60146;52.498;13.462;2023-06-22T07:30:10;101705.72;;;27.78
72236;BMP280;60146;52.498;13.462;2023-06-22T07:32:36;101704.81;;;28.23
72236;BMP280;60146;52.498;13.462;2023-06-22T07:35:02;101704.72;;;28.06
72236;BMP280;60146;52.498;13.462;2023-06-22T07:37:28;101702.78;;;28.00
72236;BMP280;60146;52.498;13.462;2023-06-22T07:39:57;101698.97;;;28.08
72236;BMP280;60146;52.498;13.462;2023-06-22T07:42:26;101702.88;;;28.20
72236;BMP280;60146;52.498;13.462;2023-06-22T07:44:51;101691.38;;;28.44
72236;BMP280;60146;52.498;13.462;2023-06-22T07:47:17;101684.84;;;28.41
72236;BMP280;60146;52.498;13.462;2023-06-22T07:49:50;101693.00;;;28.72
72236;BMP280;60146;52.498;13.462;2023-06-22T07:52:15;101699.94;;;28.86
72236;BMP280;60146;52.498;13.462;2023-06-22T07:54:40;101695.72;;;28.92
72236;BMP280;60146;52.498;13.462;2023-06-22T07:57:06;101694.16;;;28.88
72236;BMP280;60146;52.498;13.462;2023-06-22T07:59:31;101693.00;;;28.75
72236;BMP280;60146;52.498;13.462;2023-06-22T08:01:57;101688.31;;;28.62
72236;BMP280;60146;52.498;13.462;2023-06-22T08:04:23;101682.19;;;28.72
72236;BMP280;60146;52.498;13.462;2023-06-22T08:06:48;101686.88;;;29.02
72236;BMP280;60146;52.498;13.462;2023-06-22T08:09:14;101687.19;;;29.11
72236;BMP280;60146;52.498;13.462;2023-06-22T08:11:40;101686.81;;;28.92
72236;BMP280;60146;52.498;13.462;2023-06-22T08:14:05;101683.72;;;29.00
72236;BMP280;60146;52.498;13.462;2023-06-22T08:16:30;101693.03;;;29.13
72236;BMP280;60146;52.498;13.462;2023-06-22T08:18:56;101690.31;;;29.26
72236;BMP280;60146;52.498;13.462;2023-06-22T08:21:21;101687.56;;;29.50
72236;BMP280;60146;52.498;13.462;2023-06-22T08:23:47;101695.22;;;29.72
72236;BMP280;60146;52.498;13.462;2023-06-22T08:26:14;101694.38;;;29.92
72236;BMP280;60146;52.498;13.462;2023-06-22T08:28:39;101686.63;;;29.97
72236;BMP280;60146;52.498;13.462;2023-06-22T08:31:05;101691.38;;;29.66
72236;BMP280;60146;52.498;13.462;2023-06-22T08:33:30;101692.97;;;29.50
72236;BMP280;60146;52.498;13.462;2023-06-22T08:35:56;101685.63;;;29.44
72236;BMP280;60146;52.498;13.462;2023-06-22T08:38:24;101692.56;;;29.55
72236;BMP280;60146;52.498;13.462;2023-06-22T08:40:50;101678.66;;;29.46
72236;BMP280;60146;52.498;13.462;2023-06-22T08:43:15;101687.88;;;29.72
72236;BMP280;60146;52.498;13.462;2023-06-22T08:45:49;101675.81;;;29.94
72236;BMP280;60146;52.498;13.462;2023-06-22T08:48:15;101689.38;;;29.87
72236;BMP280;60146;52.498;13.462;2023-06-22T08:50:40;101685.06;;;30.00
72236;BMP280;60146;52.498;13.462;2023-06-22T08:53:06;101674.69;;;30.54
72236;BMP280;60146;52.498;13.462;2023-06-22T08:55:31;101685.84;;;30.63
72236;BMP280;60146;52.498;13.462;2023-06-22T08:57:56;101680.75;;;30.72
72236;BMP280;60146;52.498;13.462;2023-06-22T09:00:22;101691.94;;;31.17
72236;BMP280;60146;52.498;13.462;2023-06-22T09:02:48;101690.81;;;31.50
72236;BMP280;60146;52.498;13.462;2023-06-22T09:05:14;101683.03;;;32.14
72236;BMP280;60146;52.498;13.462;2023-06-22T09:07:39;101680.00;;;32.56
72236;BMP280;60146;52.498;13.462;2023-06-22T09:10:05;101672.84;;;33.10
72236;BMP280;60146;52.498;13.462;2023-06-22T09:12:31;101677.50;;;33.10
72236;BMP280;60146;52.498;13.462;2023-06-22T09:14:58;101678.81;;;33.02
72236;BMP280;60146;52.498;13.462;2023-06-22T09:17:25;101675.13;;;33.12
72236;BMP280;60146;52.498;13.462;2023-06-22T09:19:51;101662.28;;;32.71
72236;BMP280;60146;52.498;13.462;2023-06-22T09:22:16;101665.91;;;32.39
72236;BMP280;60146;52.498;13.462;2023-06-22T09:24:42;101663.72;;;32.79
72236;BMP280;60146;52.498;13.462;2023-06-22T09:27:07;101666.94;;;32.48
72236;BMP280;60146;52.498;13.462;2023-06-22T09:29:32;101665.00;;;32.93
72236;BMP280;60146;52.498;13.462;2023-06-22T09:32:01;101661.50;;;33.34
72236;BMP280;60146;52.498;13.462;2023-06-22T09:34:26;101657.69;;;33.28
72236;BMP280;60146;52.498;13.462;2023-06-22T09:36:52;101656.09;;;33.31
72236;BMP280;60146;52.498;13.462;2023-06-22T09:39:18;101660.50;;;33.25
72236;BMP280;60146;52.498;13.462;2023-06-22T09:41:53;101653.44;;;33.46
72236;BMP280;60146;52.498;13.462;2023-06-22T09:44:18;101655.75;;;33.48
72236;BMP280;60146;52.498;13.462;2023-06-22T09:46:44;101661.75;;;33.21
72236;BMP280;60146;52.498;13.462;2023-06-22T09:49:09;101660.25;;;32.97
72236;BMP280;60146;52.498;13.462;2023-06-22T09:51:44;101656.06;;;33.12
72236;BMP280;60146;52.498;13.462;2023-06-22T09:54:09;101655.53;;;33.01
72236;BMP280;60146;52.498;13.462;2023-06-22T09:56:35;101646.50;;;33.95
72236;BMP280;60146;52.498;13.462;2023-06-22T09:59:02;101645.09;;;34.22
72236;BMP280;60146;52.498;13.462;2023-06-22T10:01:28;101644.63;;;33.92
72236;BMP280;60146;52.498;13.462;2023-06-22T10:03:53;101648.47;;;34.26
72236;BMP280;60146;52.498;13.462;2023-06-22T10:06:22;101649.09;;;34.33
72236;BMP280;60146;52.498;13.462;2023-06-22T10:08:47;101656.22;;;34.43
72236;BMP280;60146;52.498;13.462;2023-06-22T10:11:15;101654.22;;;33.97
72236;BMP280;60146;52.498;13.462;2023-06-22T10:13:41;101657.41;;;34.42
72236;BMP280;60146;52.498;13.462;2023-06-22T10:16:06;101656.22;;;35.14
72236;BMP280;60146;52.498;13.462;2023-06-22T10:18:32;101655.00;;;35.66
72236;BMP280;60146;52.498;13.462;2023-06-22T10:20:57;101658.94;;;35.53
72236;BMP280;60146;52.498;13.462;2023-06-22T10:23:22;101643.31;;;35.90
72236;BMP280;60146;52.498;13.462;2023-06-22T10:25:48;101647.72;;;36.66
72236;BMP280;60146;52.498;13.462;2023-06-22T10:28:14;101643.59;;;36.16
72236;BMP280;60146;52.498;13.462;2023-06-22T10:30:42;101642.81;;;36.82
72236;BMP280;60146;52.498;13.462;2023-06-22T10:33:08;101627.59;;;37.70
72236;BMP280;60146;52.498;13.462;2023-06-22T10:35:34;101620.22;;;38.31
72236;BMP280;60146;52.498;13.462;2023-06-22T10:37:59;101628.22;;;37.74
72236;BMP280;60146;52.498;13.462;2023-06-22T10:40:25;101628.81;;;37.69
72236;BMP280;60146;52.498;13.462;2023-06-22T10:42:50;101613.06;;;38.34
72236;BMP280;60146;52.498;13.462;2023-06-22T10:45:16;101622.06;;;38.43
72236;BMP280;60146;52.498;13.462;2023-06-22T10:47:41;101621.31;;;38.51
72236;BMP280;60146;52.498;13.462;2023-06-22T10:50:09;101614.00;;;39.06
72236;BMP280;60146;52.498;13.462;2023-06-22T10:52:35;101608.81;;;39.85
72236;BMP280;60146;52.498;13.462;2023-06-22T10:55:00;101613.91;;;41.13
72236;BMP280;60146;52.498;13.462;2023-06-22T10:57:26;101605.78;;;41.76
72236;BMP280;60146;52.498;13.462;2023-06-22T10:59:51;101606.44;;;41.91
72236;BMP280;60146;52.498;13.462;2023-06-22T11:02:16;101606.88;;;41.45
72236;BMP280;60146;52.498;13.462;2023-06-22T11:04:42;101600.47;;;42.17
72236;BMP280;60146;52.498;13.462;2023-06-22T11:07:07;101594.53;;;41.80
72236;BMP280;60146;52.498;13.462;2023-06-22T11:09:32;101589.69;;;42.19
72236;BMP280;60146;52.498;13.462;2023-06-22T11:11:58;101590.41;;;42.14
72236;BMP280;60146;52.498;13.462;2023-06-22T11:14:24;101584.66;;;42.42
72236;BMP280;60146;52.498;13.462;2023-06-22T11:16:49;101580.56;;;41.44
72236;BMP280;60146;52.498;13.462;2023-06-22T11:19:15;101585.16;;;39.10
72236;BMP280;60146;52.498;13.462;2023-06-22T11:21:40;101593.22;;;38.65
72236;BMP280;60146;52.498;13.462;2023-06-22T11:24:06;101581.59;;;38.78
72236;BMP280;60146;52.498;13.462;2023-06-22T11:26:32;101575.41;;;39.32
72236;BMP280;60146;52.498;13.462;2023-06-22T11:28:58;101570.34;;;39.17
72236;BMP280;60146;52.498;13.462;2023-06-22T11:31:23;101570.75;;;39.92
72236;BMP280;60146;52.498;13.462;2023-06-22T11:33:49;101575.31;;;40.09
72236;BMP280;60146;52.498;13.462;2023-06-22T11:36:15;101569.63;;;39.98
72236;BMP280;60146;52.498;13.462;2023-06-22T11:38:40;101556.44;;;39.65
72236;BMP280;60146;52.498;13.462;2023-06-22T11:41:06;101564.81;;;40.64
72236;BMP280;60146;52.498;13.462;2023-06-22T11:43:33;101562.34;;;40.24
72236;BMP280;60146;52.498;13.462;2023-06-22T11:45:59;101557.16;;;41.01
72236;BMP280;60146;52.498;13.462;2023-06-22T11:48:24;101566.41;;;41.37
72236;BMP280;60146;52.498;13.462;2023-06-22T11:50:50;101567.44;;;42.58
72236;BMP280;60146;52.498;13.462;2023-06-22T11:53:15;101569.88;;;42.80
72236;BMP280;60146;52.498;13.462;2023-06-22T11:55:43;101574.28;;;42.62
72236;BMP280;60146;52.498;13.462;2023-06-22T11:58:08;101571.03;;;43.77
72236;BMP280;60146;52.498;13.462;2023-06-22T12:00:33;101580.59;;;44.87
72236;BMP280;60146;52.498;13.462;2023-06-22T12:02:59;101571.56;;;44.66
72236;BMP280;60146;52.498;13.462;2023-06-22T12:05:24;101563.03;;;41.86
72236;BMP280;60146;52.498;13.462;2023-06-22T12:07:50;101566.13;;;41.54
72236;BMP280;60146;52.498;13.462;2023-06-22T12:10:15;101564.91;;;41.55
72236;BMP280;60146;52.498;13.462;2023-06-22T12:12:41;101558.25;;;42.71
72236;BMP280;60146;52.498;13.462;2023-06-22T12:15:09;101560.50;;;43.96
72236;BMP280;60146;52.498;13.462;2023-06-22T12:17:34;101556.00;;;44.42
72236;BMP280;60146;52.498;13.462;2023-06-22T12:20:09;101553.47;;;44.27
72236;BMP280;60146;52.498;13.462;2023-06-22T12:22:41;101550.25;;;43.19
72236;BMP280;60146;52.498;13.462;2023-06-22T12:25:07;101547.81;;;43.37
72236;BMP280;60146;52.498;13.462;2023-06-22T12:27:34;101541.06;;;43.49
72236;BMP280;60146;52.498;13.462;2023-06-22T12:29:59;101533.56;;;43.70
72236;BMP280;60146;52.498;13.462;2023-06-22T12:32:25;101517.22;;;42.94
72236;BMP280;60146;52.498;13.462;2023-06-22T12:37:18;101525.56;;;41.36
72236;BMP280;60146;52.498;13.462;2023-06-22T12:39:43;101518.97;;;42.21
72236;BMP280;60146;52.498;13.462;2023-06-22T12:42:09;101514.56;;;43.21
72236;BMP280;60146;52.498;13.462;2023-06-22T12:44:37;101513.16;;;43.52
72236;BMP280;60146;52.498;13.462;2023-06-22T12:47:03;101506.56;;;42.72
72236;BMP280;60146;52.498;13.462;2023-06-22T12:49:28;101510.13;;;42.42
72236;BMP280;60146;52.498;13.462;2023-06-22T12:51:54;101503.75;;;42.31
72236;BMP280;60146;52.498;13.462;2023-06-22T12:54:19;101493.34;;;41.47
72236;BMP280;60146;52.498;13.462;2023-06-22T12:56:44;101488.41;;;40.73
72236;BMP280;60146;52.498;13.462;2023-06-22T12:59:10;101490.91;;;40.29
72236;BMP280;60146;52.498;13.462;2023-06-22T13:01:35;101496.88;;;39.99
72236;BMP280;60146;52.498;13.462;2023-06-22T13:04:02;101485.59;;;40.12
72236;BMP280;60146;52.498;13.462;2023-06-22T13:06:28;101479.72;;;40.80
72236;BMP280;60146;52.498;13.462;2023-06-22T13:08:53;101490.66;;;41.27
72236;BMP280;60146;52.498;13.462;2023-06-22T13:11:19;101487.97;;;40.80
72236;BMP280;60146;52.498;13.462;2023-06-22T13:13:45;101486.34;;;41.07
72236;BMP280;60146;52.498;13.462;2023-06-22T13:16:11;101478.09;;;41.07
72236;BMP280;60146;52.498;13.462;2023-06-22T13:18:36;101488.56;;;40.08
72236;BMP280;60146;52.498;13.462;2023-06-22T13:21:02;101468.97;;;40.34
72236;BMP280;60146;52.498;13.462;2023-06-22T13:23:28;101468.88;;;41.10
72236;BMP280;60146;52.498;13.462;2023-06-22T13:25:53;101458.31;;;41.28
72236;BMP280;60146;52.498;13.462;2023-06-22T13:28:18;101461.44;;;41.16
72236;BMP280;60146;52.498;13.462;2023-06-22T13:30:45;101459.66;;;40.93
72236;BMP280;60146;52.498;13.462;2023-06-22T13:33:15;101458.91;;;39.75
72236;BMP280;60146;52.498;13.462;2023-06-22T13:35:40;101455.78;;;40.86
72236;BMP280;60146;52.498;13.462;2023-06-22T13:38:09;101461.97;;;39.40
72236;BMP280;60146;52.498;13.462;2023-06-22T13:40:35;101452.91;;;39.99
72236;BMP280;60146;52.498;13.462;2023-06-22T13:43:00;101440.25;;;40.21
72236;BMP280;60146;52.498;13.462;2023-06-22T13:45:26;101454.00;;;39.93